Asia Ruby III — 9V2666 — position and weather

sailwx.info

Track history (hours):
 
Tides and Currents Weather Stations Pressure Air Temp Water Temp Dewpoint Dewpoint Depression Visibility Wind Speed Wind Dir Waves Ship Positions

Asia Ruby III

Last reported at 2018-Apr-23 20:16 UTC. Time now 2018-Apr-25 12:44 UTC.
Position N 01°29' E 104°33'.

Length 200 m; draft 12.8 m.

Type: Cargo ship. MMSI: 564511000.

Date/timePositionNaut miles runAvg speedWind from/ knotsBaromVisibWave heightAir tempDewpointWater temp
2018-Apr-23 20:16N 01°29' E 104°33'410.5
2018-Apr-23 19:54N 01°26' E 104°30'410.4
2018-Apr-23 19:28N 01°23' E 104°27'510.3
2018-Apr-23 18:59N 01°20' E 104°23'5 9.6
2018-Apr-23 18:30N 01°17' E 104°19'5 9.9
2018-Apr-23 17:59N 01°16' E 104°14'5 9.6
2018-Apr-23 17:29N 01°16' E 104°09'5 9.3
2018-Apr-23 17:00N 01°15' E 104°05'5 9.4
2018-Apr-23 16:30N 01°15' E 104°00'4 7.5
2018-Apr-23 16:00N 01°16' E 103°56'2 3.3
2018-Apr-23 15:30N 01°17' E 103°56'0 0.0
2018-Apr-23 14:54N 01°17' E 103°56'0 0.0
2018-Apr-23 14:30N 01°17' E 103°56'0 0.0
2018-Apr-23 13:59N 01°17' E 103°56'0 0.0
2018-Apr-23 13:26N 01°17' E 103°56'0 0.0
2018-Apr-23 12:54N 01°17' E 103°56'0 0.0
2018-Apr-23 12:30N 01°17' E 103°56'0 0.0
2018-Apr-23 11:57N 01°17' E 103°56'0 0.0
2018-Apr-23 11:30N 01°17' E 103°56'0 0.0
2018-Apr-23 10:59N 01°17' E 103°56'0 0.0
2018-Apr-23 10:30N 01°17' E 103°56'0 0.0
2018-Apr-23 09:56N 01°17' E 103°56'0 0.0
2018-Apr-23 09:18N 01°17' E 103°56'0 0.1
2018-Apr-23 08:57N 01°17' E 103°56'0 0.1
2018-Apr-23 08:27N 01°17' E 103°56'0 0.0
2018-Apr-23 07:54N 01°17' E 103°56'0 0.0
2018-Apr-23 07:27N 01°17' E 103°56'0 0.1
2018-Apr-23 06:51N 01°17' E 103°56'0 0.0
2018-Apr-23 06:24N 01°17' E 103°56'0 0.1
2018-Apr-23 05:57N 01°17' E 103°56'0 0.0
2018-Apr-23 05:24N 01°17' E 103°56'0 0.3
2018-Apr-23 04:54N 01°17' E 103°56'0 0.2
2018-Apr-23 04:30N 01°17' E 103°56'0 0.0
2018-Apr-23 03:57N 01°17' E 103°56'0 0.1
2018-Apr-23 03:29N 01°17' E 103°56'0 0.0
2018-Apr-23 02:54N 01°17' E 103°56'0 0.0
2018-Apr-23 02:26N 01°17' E 103°56'0 0.0
2018-Apr-23 01:45N 01°17' E 103°56'0 0.0
2018-Apr-23 00:59N 01°17' E 103°56'0 0.2
2018-Apr-23 00:29N 01°17' E 103°56'2 3.2
2018-Apr-22 23:59N 01°16' E 103°57'2 3.7
2018-Apr-22 23:26N 01°15' E 103°59'2 3.6
2018-Apr-22 22:57N 01°14' E 103°58'3 5.8
2018-Apr-22 22:30N 01°13' E 103°55'5 9.9
2018-Apr-22 22:01N 01°11' E 103°51'611.4
2018-Apr-22 21:29N 01°08' E 103°46'510.5
2018-Apr-22 20:59N 01°05' E 103°42'5 9.4
2018-Apr-22 20:30N 01°03' E 103°38'510.1
2018-Apr-22 19:59N 01°06' E 103°33'510.0
2018-Apr-22 19:29N 01°08' E 103°29'5 9.6
2018-Apr-22 18:56N 01°11' E 103°25'5 9.3
2018-Apr-22 18:24N 01°14' E 103°21'4 9.9
2018-Apr-22 17:59N 01°17' E 103°18'  
Track history (hours):
 
Tides and Currents Weather Stations Pressure Air Temp Water Temp Dewpoint Dewpoint Depression Visibility Wind Speed Wind Dir Waves Ship Positions

Asia Ruby III

Last reported at 2018-Apr-23 20:16 UTC. Time now 2018-Apr-25 12:44 UTC.
Position N 01°29' E 104°33'.

Length 200 m; draft 12.8 m.

Type: Cargo ship. MMSI: 564511000.

Date/timePositionNaut miles runAvg speedWind from/ knotsBaromVisibWave heightAir tempDewpointWater temp
2018-Apr-23 20:16N 01°29' E 104°33'410.5
2018-Apr-23 19:54N 01°26' E 104°30'410.4
2018-Apr-23 19:28N 01°23' E 104°27'510.3
2018-Apr-23 18:59N 01°20' E 104°23'5 9.6
2018-Apr-23 18:30N 01°17' E 104°19'5 9.9
2018-Apr-23 17:59N 01°16' E 104°14'5 9.6
2018-Apr-23 17:29N 01°16' E 104°09'5 9.3
2018-Apr-23 17:00N 01°15' E 104°05'5 9.4
2018-Apr-23 16:30N 01°15' E 104°00'4 7.5
2018-Apr-23 16:00N 01°16' E 103°56'2 3.3
2018-Apr-23 15:30N 01°17' E 103°56'0 0.0
2018-Apr-23 14:54N 01°17' E 103°56'0 0.0
2018-Apr-23 14:30N 01°17' E 103°56'0 0.0
2018-Apr-23 13:59N 01°17' E 103°56'0 0.0
2018-Apr-23 13:26N 01°17' E 103°56'0 0.0
2018-Apr-23 12:54N 01°17' E 103°56'0 0.0
2018-Apr-23 12:30N 01°17' E 103°56'0 0.0
2018-Apr-23 11:57N 01°17' E 103°56'0 0.0
2018-Apr-23 11:30N 01°17' E 103°56'0 0.0
2018-Apr-23 10:59N 01°17' E 103°56'0 0.0
2018-Apr-23 10:30N 01°17' E 103°56'0 0.0
2018-Apr-23 09:56N 01°17' E 103°56'0 0.0
2018-Apr-23 09:18N 01°17' E 103°56'0 0.1
2018-Apr-23 08:57N 01°17' E 103°56'0 0.1
2018-Apr-23 08:27N 01°17' E 103°56'0 0.0
2018-Apr-23 07:54N 01°17' E 103°56'0 0.0
2018-Apr-23 07:27N 01°17' E 103°56'0 0.1
2018-Apr-23 06:51N 01°17' E 103°56'0 0.0
2018-Apr-23 06:24N 01°17' E 103°56'0 0.1
2018-Apr-23 05:57N 01°17' E 103°56'0 0.0
2018-Apr-23 05:24N 01°17' E 103°56'0 0.3
2018-Apr-23 04:54N 01°17' E 103°56'0 0.2
2018-Apr-23 04:30N 01°17' E 103°56'0 0.0
2018-Apr-23 03:57N 01°17' E 103°56'0 0.1
2018-Apr-23 03:29N 01°17' E 103°56'0 0.0
2018-Apr-23 02:54N 01°17' E 103°56'0 0.0
2018-Apr-23 02:26N 01°17' E 103°56'0 0.0
2018-Apr-23 01:45N 01°17' E 103°56'0 0.0
2018-Apr-23 00:59N 01°17' E 103°56'0 0.2
2018-Apr-23 00:29N 01°17' E 103°56'2 3.2
2018-Apr-22 23:59N 01°16' E 103°57'2 3.7
2018-Apr-22 23:26N 01°15' E 103°59'2 3.6
2018-Apr-22 22:57N 01°14' E 103°58'3 5.8
2018-Apr-22 22:30N 01°13' E 103°55'5 9.9
2018-Apr-22 22:01N 01°11' E 103°51'611.4
2018-Apr-22 21:29N 01°08' E 103°46'510.5
2018-Apr-22 20:59N 01°05' E 103°42'5 9.4
2018-Apr-22 20:30N 01°03' E 103°38'510.1
2018-Apr-22 19:59N 01°06' E 103°33'510.0
2018-Apr-22 19:29N 01°08' E 103°29'5 9.6
2018-Apr-22 18:56N 01°11' E 103°25'5 9.3
2018-Apr-22 18:24N 01°14' E 103°21'4 9.9
2018-Apr-22 17:59N 01°17' E 103°18'  

Dump ship's entire track history